Time;durP1;ratioP1;P1;durP2;ratioP2;P2;SDS_P1;SDS_P2;PMS_P1;PMS_P2;Temp;Humidity;BMP_temperature;BMP_pressure;BME280_temperature;BME280_humidity;BME280_pressure;Samples;Min_cycle;Max_cycle;Signal;HPM_P1;HPM_P2
2022/03/27 00:00:24;;;;;;;19.35;8.45;;;;;;;;;;5118342;27;20099;-87
2022/03/27 00:02:50;;;;;;;19.38;8.30;;;;;;;;;;5116262;27;20047;-87
2022/03/27 00:05:17;;;;;;;16.73;8.45;;;;;;;;;;5117059;27;20135;-87
2022/03/27 00:07:43;;;;;;;24.63;8.23;;;;;;;;;;5125743;27;20071;-87
2022/03/27 00:10:10;;;;;;;16.83;8.77;;;;;;;;;;5116254;27;20147;-87
2022/03/27 00:12:38;;;;;;;19.50;9.88;;;;;;;;;;5122104;27;20085;-87
2022/03/27 00:15:06;;;;;;;18.10;8.60;;;;;;;;;;5117151;27;20128;-86
2022/03/27 00:17:34;;;;;;;17.63;8.85;;;;;;;;;;5117501;27;20428;-86
2022/03/27 00:20:01;;;;;;;15.85;7.82;;;;;;;;;;5121781;27;20614;-87
2022/03/27 00:22:28;;;;;;;16.63;8.00;;;;;;;;;;5117150;27;20085;-87
2022/03/27 00:24:55;;;;;;;18.75;9.07;;;;;;;;;;5121152;27;20043;-87
2022/03/27 00:27:21;;;;;;;18.98;8.77;;;;;;;;;;5124481;27;20047;-87
2022/03/27 00:29:50;;;;;;;16.10;7.45;;;;;;;;;;5124719;27;20090;-87
2022/03/27 00:32:16;;;;;;;13.90;7.22;;;;;;;;;;5124799;27;20130;-87
2022/03/27 00:34:43;;;;;;;15.20;7.47;;;;;;;;;;5122531;27;20070;-87
2022/03/27 00:37:10;;;;;;;19.10;8.80;;;;;;;;;;5118771;27;20137;-87
2022/03/27 00:39:37;;;;;;;19.17;10.02;;;;;;;;;;5121655;27;20092;-87
2022/03/27 00:42:04;;;;;;;18.08;8.90;;;;;;;;;;5121594;27;20129;-87
2022/03/27 00:44:31;;;;;;;19.58;9.38;;;;;;;;;;5117488;27;20075;-87
2022/03/27 00:46:59;;;;;;;20.42;8.13;;;;;;;;;;5118493;27;20044;-87
2022/03/27 00:49:26;;;;;;;18.60;8.32;;;;;;;;;;5112108;27;20050;-87
2022/03/27 00:51:54;;;;;;;16.55;7.85;;;;;;;;;;5114728;27;20101;-87
2022/03/27 00:54:20;;;;;;;19.20;8.88;;;;;;;;;;5123003;27;20150;-87
2022/03/27 00:56:47;;;;;;;18.70;9.27;;;;;;;;;;5117469;27;20071;-87
2022/03/27 00:59:14;;;;;;;16.20;7.60;;;;;;;;;;5125177;27;20128;-87
2022/03/27 01:01:42;;;;;;;20.42;9.13;;;;;;;;;;5124039;27;20082;-86
2022/03/27 01:04:10;;;;;;;17.30;7.65;;;;;;;;;;5114114;27;20524;-87
2022/03/27 01:06:39;;;;;;;16.55;9.85;;;;;;;;;;5121172;27;20135;-87
2022/03/27 01:11:53;;;;;;;17.23;8.70;;;;;;;;;;5117871;27;20070;-87
2022/03/27 01:14:26;;;;;;;13.73;7.88;;;;;;;;;;5119181;27;20399;-88
2022/03/27 01:17:08;;;;;;;19.63;8.38;;;;;;;;;;5116639;27;20062;-87
2022/03/27 01:19:36;;;;;;;18.55;8.55;;;;;;;;;;5118911;27;20103;-87
2022/03/27 01:22:05;;;;;;;19.48;9.50;;;;;;;;;;5116606;27;20047;-87
2022/03/27 01:24:31;;;;;;;18.60;9.27;;;;;;;;;;5122153;27;20067;-87
2022/03/27 01:26:58;;;;;;;19.42;7.90;;;;;;;;;;5119837;27;20322;-87
2022/03/27 01:29:24;;;;;;;23.52;8.30;;;;;;;;;;5113291;27;20101;-87
2022/03/27 01:31:53;;;;;;;15.80;7.43;;;;;;;;;;5116826;27;20132;-87
2022/03/27 01:34:20;;;;;;;18.10;8.18;;;;;;;;;;5112487;27;20666;-87
2022/03/27 01:36:46;;;;;;;17.02;9.20;;;;;;;;;;5118073;27;20651;-87
2022/03/27 01:39:16;;;;;;;18.80;9.55;;;;;;;;;;5113242;27;20079;-87
2022/03/27 01:41:43;;;;;;;16.88;8.60;;;;;;;;;;5113924;27;20486;-86
2022/03/27 01:44:11;;;;;;;19.40;8.73;;;;;;;;;;5115029;27;20079;-87
2022/03/27 01:46:40;;;;;;;16.27;8.32;;;;;;;;;;5119452;27;20127;-86
2022/03/27 01:49:09;;;;;;;20.35;8.60;;;;;;;;;;5117106;27;20047;-86
2022/03/27 01:51:36;;;;;;;19.23;7.40;;;;;;;;;;5119885;27;20043;-86
2022/03/27 01:54:04;;;;;;;21.73;8.10;;;;;;;;;;5116183;27;20035;-86
2022/03/27 01:56:32;;;;;;;19.77;8.73;;;;;;;;;;5116878;27;20051;-86
2022/03/27 01:58:59;;;;;;;24.30;9.15;;;;;;;;;;5115680;27;20056;-86
2022/03/27 02:01:26;;;;;;;18.25;8.18;;;;;;;;;;5115763;27;20592;-87
2022/03/27 02:03:54;;;;;;;18.80;8.25;;;;;;;;;;5119459;27;20134;-87
2022/03/27 02:06:23;;;;;;;17.85;8.35;;;;;;;;;;5116757;27;20043;-87
2022/03/27 02:08:50;;;;;;;17.42;7.75;;;;;;;;;;5115470;27;21349;-87
2022/03/27 02:11:17;;;;;;;16.13;7.13;;;;;;;;;;5119802;27;20070;-86
2022/03/27 02:13:45;;;;;;;16.60;8.32;;;;;;;;;;5116222;27;20055;-86
2022/03/27 02:16:12;;;;;;;18.95;8.77;;;;;;;;;;5118946;27;20058;-86
2022/03/27 02:18:41;;;;;;;19.85;8.10;;;;;;;;;;5114298;27;20043;-87
2022/03/27 02:21:08;;;;;;;18.45;9.13;;;;;;;;;;5115058;27;20092;-87
2022/03/27 02:23:34;;;;;;;18.90;8.82;;;;;;;;;;5115449;27;20499;-87
2022/03/27 02:26:01;;;;;;;18.30;8.15;;;;;;;;;;5115298;27;20133;-87
2022/03/27 02:28:27;;;;;;;17.00;6.93;;;;;;;;;;5117074;27;20068;-87
2022/03/27 02:30:55;;;;;;;22.27;9.68;;;;;;;;;;5118703;27;20130;-87
2022/03/27 02:33:32;;;;;;;18.05;8.48;;;;;;;;;;5116304;27;20127;-87
2022/03/27 02:35:59;;;;;;;15.68;7.18;;;;;;;;;;5118776;27;20505;-87
2022/03/27 02:38:25;;;;;;;18.20;8.05;;;;;;;;;;5112545;27;20074;-87
2022/03/27 02:40:52;;;;;;;24.27;8.35;;;;;;;;;;5114138;27;20067;-87
2022/03/27 02:43:18;;;;;;;22.05;8.88;;;;;;;;;;5111143;27;20069;-87
2022/03/27 02:45:45;;;;;;;18.98;8.55;;;;;;;;;;5113973;27;20070;-87
2022/03/27 02:48:13;;;;;;;17.63;8.25;;;;;;;;;;5115018;27;20050;-87
2022/03/27 02:50:43;;;;;;;15.35;8.45;;;;;;;;;;5113462;27;20071;-87
2022/03/27 02:53:10;;;;;;;19.98;8.93;;;;;;;;;;5115495;27;20473;-87
2022/03/27 02:55:36;;;;;;;19.90;9.02;;;;;;;;;;5117489;27;20074;-86
2022/03/27 02:58:04;;;;;;;18.95;8.15;;;;;;;;;;5110166;27;20142;-87
2022/03/27 03:00:30;;;;;;;15.85;7.97;;;;;;;;;;5116355;27;20134;-87
2022/03/27 03:02:57;;;;;;;20.70;8.35;;;;;;;;;;5115552;27;20082;-87
2022/03/27 03:05:25;;;;;;;20.50;8.52;;;;;;;;;;5116634;27;20373;-87
2022/03/27 03:07:52;;;;;;;19.85;8.27;;;;;;;;;;5119989;28;20465;-87
2022/03/27 03:10:19;;;;;;;20.95;8.63;;;;;;;;;;5112276;28;20130;-87
2022/03/27 03:12:46;;;;;;;20.80;9.60;;;;;;;;;;5121922;28;20095;-87
2022/03/27 03:15:13;;;;;;;16.38;7.38;;;;;;;;;;5118934;28;20129;-87
2022/03/27 03:17:40;;;;;;;18.27;7.97;;;;;;;;;;5112988;28;20109;-87
2022/03/27 03:20:08;;;;;;;17.95;8.43;;;;;;;;;;5113379;28;20035;-87
2022/03/27 03:22:37;;;;;;;17.33;8.18;;;;;;;;;;5117078;28;20060;-87
2022/03/27 03:25:05;;;;;;;20.85;9.75;;;;;;;;;;5114906;28;20048;-87
2022/03/27 03:27:31;;;;;;;18.08;9.00;;;;;;;;;;5121678;27;20833;-87
2022/03/27 03:29:59;;;;;;;18.92;9.05;;;;;;;;;;5121413;27;20601;-87
2022/03/27 03:32:26;;;;;;;17.10;7.45;;;;;;;;;;5116235;27;20047;-87
2022/03/27 03:34:53;;;;;;;15.77;7.78;;;;;;;;;;5117972;27;20093;-87
2022/03/27 03:37:19;;;;;;;16.25;7.03;;;;;;;;;;5126813;27;20845;-87
2022/03/27 03:39:47;;;;;;;16.15;7.60;;;;;;;;;;5127963;27;20043;-87
2022/03/27 03:42:14;;;;;;;15.50;6.95;;;;;;;;;;5122002;27;20476;-87
2022/03/27 03:44:41;;;;;;;16.73;8.13;;;;;;;;;;5119862;27;20218;-87
2022/03/27 03:47:09;;;;;;;16.67;7.93;;;;;;;;;;5125307;27;20075;-87
2022/03/27 03:49:39;;;;;;;19.30;7.38;;;;;;;;;;5116986;27;20058;-87
2022/03/27 03:52:07;;;;;;;16.30;7.38;;;;;;;;;;5121662;27;20039;-87
2022/03/27 03:54:35;;;;;;;13.50;6.70;;;;;;;;;;5119893;27;20119;-87
2022/03/27 03:57:03;;;;;;;18.48;7.90;;;;;;;;;;5114129;27;20060;-87
2022/03/27 03:59:33;;;;;;;17.00;8.00;;;;;;;;;;5120122;27;20138;-87
2022/03/27 04:02:00;;;;;;;17.73;8.05;;;;;;;;;;5118096;27;20052;-87
2022/03/27 04:04:27;;;;;;;16.52;8.38;;;;;;;;;;5121404;27;20139;-87
2022/03/27 04:06:53;;;;;;;17.73;7.68;;;;;;;;;;5122693;27;20137;-87
2022/03/27 04:09:20;;;;;;;16.63;7.78;;;;;;;;;;5120354;27;20087;-87
2022/03/27 04:11:47;;;;;;;21.95;9.18;;;;;;;;;;5116042;27;20052;-87
2022/03/27 04:14:15;;;;;;;20.92;7.85;;;;;;;;;;5118917;27;20079;-87
2022/03/27 04:16:42;;;;;;;16.88;7.43;;;;;;;;;;5121010;27;20543;-87
2022/03/27 04:19:08;;;;;;;17.98;8.80;;;;;;;;;;5123689;27;20136;-87
2022/03/27 04:21:35;;;;;;;19.83;9.75;;;;;;;;;;5124945;27;20079;-87
2022/03/27 04:24:01;;;;;;;18.92;7.82;;;;;;;;;;5127282;27;20111;-87
2022/03/27 04:26:28;;;;;;;16.77;7.60;;;;;;;;;;5115895;27;20365;-87
2022/03/27 04:28:54;;;;;;;19.25;9.43;;;;;;;;;;5120318;27;20136;-87
2022/03/27 04:31:22;;;;;;;19.15;8.60;;;;;;;;;;5115899;27;20043;-87
2022/03/27 04:33:49;;;;;;;19.30;9.13;;;;;;;;;;5119168;27;20071;-87
2022/03/27 04:36:15;;;;;;;21.10;9.45;;;;;;;;;;5119572;27;20078;-87
2022/03/27 04:38:42;;;;;;;17.70;8.60;;;;;;;;;;5123764;27;20130;-87
2022/03/27 04:41:08;;;;;;;20.50;8.30;;;;;;;;;;5120912;27;20096;-87
2022/03/27 04:43:35;;;;;;;17.95;7.65;;;;;;;;;;5118331;27;20082;-87
2022/03/27 04:46:02;;;;;;;19.75;8.35;;;;;;;;;;5124680;27;20158;-87
2022/03/27 04:48:30;;;;;;;23.58;8.82;;;;;;;;;;5117392;27;20101;-87
2022/03/27 04:50:56;;;;;;;19.15;8.55;;;;;;;;;;5117418;27;20111;-87
2022/03/27 04:53:23;;;;;;;19.02;8.88;;;;;;;;;;5123337;27;20063;-87
2022/03/27 04:55:50;;;;;;;18.23;8.40;;;;;;;;;;5117333;27;20570;-87
2022/03/27 04:58:19;;;;;;;21.27;8.02;;;;;;;;;;5117156;27;20171;-87
2022/03/27 05:00:46;;;;;;;19.95;8.93;;;;;;;;;;5123523;27;20039;-87
2022/03/27 05:03:12;;;;;;;14.48;7.38;;;;;;;;;;5112139;27;20096;-87
2022/03/27 05:05:41;;;;;;;19.98;8.10;;;;;;;;;;5118028;27;20295;-87
2022/03/27 05:08:07;;;;;;;21.52;8.05;;;;;;;;;;5124507;27;20499;-87
2022/03/27 05:10:35;;;;;;;17.75;6.68;;;;;;;;;;5114159;27;20093;-87
2022/03/27 05:13:01;;;;;;;16.08;7.78;;;;;;;;;;5112626;27;20051;-87
2022/03/27 05:15:28;;;;;;;18.60;8.52;;;;;;;;;;5123720;27;20149;-87
2022/03/27 05:17:56;;;;;;;21.55;8.80;;;;;;;;;;5116596;27;20138;-87
2022/03/27 05:20:23;;;;;;;14.15;6.28;;;;;;;;;;5120470;27;20134;-87
2022/03/27 05:22:51;;;;;;;16.30;7.35;;;;;;;;;;5115354;27;20039;-87
2022/03/27 05:25:18;;;;;;;17.13;8.35;;;;;;;;;;5120027;27;20527;-87
2022/03/27 05:27:46;;;;;;;19.95;8.13;;;;;;;;;;5116618;27;20163;-87
2022/03/27 05:30:13;;;;;;;17.52;8.02;;;;;;;;;;5120928;27;20058;-87
2022/03/27 05:32:40;;;;;;;19.88;8.80;;;;;;;;;;5113679;27;20079;-87
2022/03/27 05:35:07;;;;;;;21.08;9.93;;;;;;;;;;5120310;27;20047;-88
2022/03/27 05:37:38;;;;;;;22.48;9.65;;;;;;;;;;5118895;27;20472;-88
2022/03/27 05:40:08;;;;;;;16.77;7.75;;;;;;;;;;5118118;27;20048;-88
2022/03/27 05:42:35;;;;;;;19.08;8.07;;;;;;;;;;5117932;27;20475;-88
2022/03/27 05:45:01;;;;;;;18.48;8.07;;;;;;;;;;5115585;27;20071;-88
2022/03/27 05:47:28;;;;;;;20.92;8.23;;;;;;;;;;5118603;27;20074;-88
2022/03/27 05:49:55;;;;;;;19.65;8.43;;;;;;;;;;5116026;27;20103;-88
2022/03/27 05:52:22;;;;;;;18.88;7.85;;;;;;;;;;5117512;27;20089;-89
2022/03/27 05:54:49;;;;;;;16.27;7.75;;;;;;;;;;5114195;27;20085;-88
2022/03/27 05:57:18;;;;;;;20.70;8.48;;;;;;;;;;5117126;27;20581;-89
2022/03/27 05:59:45;;;;;;;20.70;9.50;;;;;;;;;;5119373;27;20047;-88
2022/03/27 06:02:12;;;;;;;17.23;8.95;;;;;;;;;;5117093;27;20101;-89
2022/03/27 06:04:39;;;;;;;22.33;8.13;;;;;;;;;;5120663;27;20442;-89
2022/03/27 06:07:05;;;;;;;18.55;7.43;;;;;;;;;;5116795;27;20040;-88
2022/03/27 06:09:33;;;;;;;20.10;7.38;;;;;;;;;;5118745;27;20138;-88
2022/03/27 06:11:59;;;;;;;22.52;9.18;;;;;;;;;;5115792;27;20586;-88
2022/03/27 06:14:27;;;;;;;22.50;8.73;;;;;;;;;;5115144;27;20047;-88
2022/03/27 06:16:54;;;;;;;21.80;9.98;;;;;;;;;;5115138;27;20051;-88
2022/03/27 06:19:21;;;;;;;17.55;9.07;;;;;;;;;;5123405;27;20092;-87
2022/03/27 06:21:47;;;;;;;23.70;10.52;;;;;;;;;;5117205;27;20108;-87
2022/03/27 06:24:14;;;;;;;23.73;9.27;;;;;;;;;;5118896;27;20047;-87
2022/03/27 06:26:41;;;;;;;21.33;9.07;;;;;;;;;;5121829;27;20104;-87
2022/03/27 06:29:09;;;;;;;20.10;9.13;;;;;;;;;;5113853;27;20039;-87
2022/03/27 06:31:37;;;;;;;19.63;9.18;;;;;;;;;;5118904;27;20065;-87
2022/03/27 06:34:04;;;;;;;20.05;9.32;;;;;;;;;;5118837;27;20047;-87
2022/03/27 06:36:31;;;;;;;17.05;7.50;;;;;;;;;;5119021;27;20046;-86
2022/03/27 06:38:57;;;;;;;20.50;8.23;;;;;;;;;;5119081;27;20051;-87
2022/03/27 06:41:24;;;;;;;22.13;9.98;;;;;;;;;;5114528;27;20071;-87
2022/03/27 06:43:50;;;;;;;20.23;8.88;;;;;;;;;;5122321;27;20039;-87
2022/03/27 06:46:17;;;;;;;17.88;8.50;;;;;;;;;;5116275;27;20158;-87
2022/03/27 06:48:45;;;;;;;20.73;8.60;;;;;;;;;;5116425;27;20046;-86
2022/03/27 06:51:13;;;;;;;18.17;8.93;;;;;;;;;;5123543;27;20043;-87
2022/03/27 06:53:39;;;;;;;23.40;8.40;;;;;;;;;;5119961;27;20431;-86
2022/03/27 06:56:06;;;;;;;18.10;8.77;;;;;;;;;;5123296;27;20562;-86
2022/03/27 06:58:33;;;;;;;26.10;10.10;;;;;;;;;;5119165;27;20047;-86
2022/03/27 07:03:59;;;;;;;19.20;10.13;;;;;;;;;;5116220;27;20051;-86
2022/03/27 07:06:26;;;;;;;20.65;8.48;;;;;;;;;;5123913;27;20048;-86
2022/03/27 07:08:52;;;;;;;21.48;10.73;;;;;;;;;;5120931;28;20086;-86
2022/03/27 07:11:19;;;;;;;22.98;10.25;;;;;;;;;;5116312;28;20058;-86
2022/03/27 07:13:45;;;;;;;21.02;9.73;;;;;;;;;;5116737;28;20081;-86
2022/03/27 07:16:13;;;;;;;23.30;10.38;;;;;;;;;;5121189;28;20436;-86
2022/03/27 07:18:39;;;;;;;21.60;10.60;;;;;;;;;;5121022;28;20480;-86
2022/03/27 07:21:08;;;;;;;22.83;10.82;;;;;;;;;;5124807;28;20097;-86
2022/03/27 07:23:34;;;;;;;30.45;11.85;;;;;;;;;;5121447;28;20077;-86
2022/03/27 07:26:01;;;;;;;22.67;10.75;;;;;;;;;;5119373;28;20043;-86
2022/03/27 07:28:30;;;;;;;19.30;10.50;;;;;;;;;;5113443;28;20056;-86
2022/03/27 07:30:58;;;;;;;20.45;10.18;;;;;;;;;;5118830;28;20054;-86
2022/03/27 07:33:25;;;;;;;22.58;10.43;;;;;;;;;;5120430;28;20130;-87
2022/03/27 07:35:52;;;;;;;24.23;10.35;;;;;;;;;;5117192;28;20055;-86
2022/03/27 07:38:20;;;;;;;21.05;9.73;;;;;;;;;;5127246;28;20051;-86
2022/03/27 07:40:47;;;;;;;19.40;11.27;;;;;;;;;;5117308;28;20047;-86
2022/03/27 07:43:14;;;;;;;20.45;11.45;;;;;;;;;;5118768;28;20051;-86
2022/03/27 07:45:41;;;;;;;17.17;9.05;;;;;;;;;;5121007;28;20089;-86
2022/03/27 07:48:07;;;;;;;24.70;11.57;;;;;;;;;;5117432;28;20099;-86
2022/03/27 07:50:37;;;;;;;23.58;11.32;;;;;;;;;;5117621;28;20096;-86
2022/03/27 07:53:05;;;;;;;21.10;10.90;;;;;;;;;;5127592;28;20047;-86
2022/03/27 07:55:34;;;;;;;22.25;11.40;;;;;;;;;;5115496;28;20554;-86
2022/03/27 07:58:01;;;;;;;18.20;10.48;;;;;;;;;;5113050;28;20642;-86
2022/03/27 08:00:28;;;;;;;21.42;9.73;;;;;;;;;;5121398;28;20039;-86
2022/03/27 08:02:55;;;;;;;24.10;11.40;;;;;;;;;;5124676;28;20162;-86
2022/03/27 08:05:22;;;;;;;22.00;11.38;;;;;;;;;;5123996;28;20055;-86
2022/03/27 08:07:49;;;;;;;19.95;11.48;;;;;;;;;;5123243;28;20112;-86
2022/03/27 08:10:15;;;;;;;19.75;9.95;;;;;;;;;;5123259;28;20078;-86
2022/03/27 08:12:44;;;;;;;23.48;11.02;;;;;;;;;;5126188;27;20055;-86
2022/03/27 08:15:11;;;;;;;20.88;12.40;;;;;;;;;;5121412;27;20073;-86
2022/03/27 08:17:38;;;;;;;17.73;9.85;;;;;;;;;;5122231;27;20439;-86
2022/03/27 08:20:11;;;;;;;22.42;9.85;;;;;;;;;;5116973;27;20512;-86
2022/03/27 08:22:38;;;;;;;22.63;10.52;;;;;;;;;;5111700;27;20043;-85
2022/03/27 08:25:05;;;;;;;23.73;11.15;;;;;;;;;;5112054;27;20078;-85
2022/03/27 08:27:31;;;;;;;18.92;10.38;;;;;;;;;;5116212;27;20067;-85
2022/03/27 08:29:59;;;;;;;24.05;11.40;;;;;;;;;;5127264;27;20075;-85
2022/03/27 08:32:26;;;;;;;21.70;10.80;;;;;;;;;;5122958;27;20081;-85
2022/03/27 08:34:53;;;;;;;24.85;11.50;;;;;;;;;;5123499;27;20119;-85
2022/03/27 08:37:19;;;;;;;20.95;11.45;;;;;;;;;;5115225;27;20544;-85
2022/03/27 08:39:46;;;;;;;22.40;10.57;;;;;;;;;;5118628;27;20043;-86
2022/03/27 08:42:14;;;;;;;22.45;11.98;;;;;;;;;;5125417;27;20100;-85
2022/03/27 08:44:41;;;;;;;22.25;12.13;;;;;;;;;;5120360;27;20515;-86
2022/03/27 08:47:16;;;;;;;21.40;11.60;;;;;;;;;;5117950;27;20051;-86
2022/03/27 08:49:49;;;;;;;23.13;12.20;;;;;;;;;;5119123;27;20082;-86
2022/03/27 08:52:40;;;;;;;21.10;11.57;;;;;;;;;;5115015;27;20420;-86
2022/03/27 08:55:09;;;;;;;24.60;12.35;;;;;;;;;;5119473;27;20051;-87
2022/03/27 08:57:54;;;;;;;24.33;11.52;;;;;;;;;;5118563;27;20419;-87
2022/03/27 09:00:21;;;;;;;26.67;11.70;;;;;;;;;;5123129;27;20063;-87
2022/03/27 09:02:50;;;;;;;24.33;12.68;;;;;;;;;;5124233;27;20092;-87
2022/03/27 09:05:20;;;;;;;21.52;10.70;;;;;;;;;;5119872;27;20051;-87
2022/03/27 09:07:47;;;;;;;22.27;10.98;;;;;;;;;;5128644;27;20040;-86
2022/03/27 09:10:16;;;;;;;22.48;11.20;;;;;;;;;;5120658;27;20489;-86
2022/03/27 09:12:43;;;;;;;22.58;11.82;;;;;;;;;;5120067;27;20172;-87
2022/03/27 09:15:12;;;;;;;23.55;12.15;;;;;;;;;;5117568;27;20086;-87
2022/03/27 09:17:59;;;;;;;24.42;12.75;;;;;;;;;;5121180;27;20125;-87
2022/03/27 09:20:34;;;;;;;22.95;12.05;;;;;;;;;;5117605;27;20130;-87
2022/03/27 09:23:22;;;;;;;22.48;13.77;;;;;;;;;;5123505;27;20468;-87
2022/03/27 09:25:52;;;;;;;24.27;13.35;;;;;;;;;;5125315;27;20475;-87
2022/03/27 09:28:27;;;;;;;20.73;11.73;;;;;;;;;;5124747;27;20155;-86
2022/03/27 09:30:56;;;;;;;25.83;12.23;;;;;;;;;;5110257;27;20054;-86
2022/03/27 09:33:46;;;;;;;27.38;12.93;;;;;;;;;;5114318;27;20135;-86
2022/03/27 09:36:14;;;;;;;22.02;12.15;;;;;;;;;;5114057;27;20055;-85
2022/03/27 09:38:41;;;;;;;21.83;12.05;;;;;;;;;;5118071;27;20070;-85
2022/03/27 09:41:39;;;;;;;26.73;12.82;;;;;;;;;;5121406;27;20134;-85
2022/03/27 09:44:08;;;;;;;23.65;13.13;;;;;;;;;;5123674;27;20134;-85
2022/03/27 09:46:52;;;;;;;25.92;13.93;;;;;;;;;;5116403;27;21374;-85
2022/03/27 09:49:20;;;;;;;24.05;13.07;;;;;;;;;;5121446;27;20158;-85
2022/03/27 09:51:53;;;;;;;25.33;12.77;;;;;;;;;;5115392;27;20043;-85
2022/03/27 09:54:21;;;;;;;26.20;15.20;;;;;;;;;;5123208;27;20129;-85
2022/03/27 09:56:49;;;;;;;25.02;12.98;;;;;;;;;;5120150;27;20169;-85
2022/03/27 09:59:32;;;;;;;30.80;14.60;;;;;;;;;;5119601;27;20055;-85
2022/03/27 10:02:24;;;;;;;24.48;14.20;;;;;;;;;;5118086;27;20039;-85
2022/03/27 10:04:56;;;;;;;24.98;14.65;;;;;;;;;;5111979;27;20515;-85
2022/03/27 10:07:24;;;;;;;24.15;14.02;;;;;;;;;;5112540;27;20283;-85
2022/03/27 10:09:52;;;;;;;26.63;14.63;;;;;;;;;;5111995;27;20051;-85
2022/03/27 10:12:27;;;;;;;27.85;15.55;;;;;;;;;;5119733;27;20084;-85
2022/03/27 10:14:57;;;;;;;27.65;14.43;;;;;;;;;;5116233;27;20050;-85
2022/03/27 10:17:24;;;;;;;24.85;14.77;;;;;;;;;;5121960;27;20092;-85
2022/03/27 10:19:52;;;;;;;21.92;13.48;;;;;;;;;;5110720;27;20043;-85
2022/03/27 10:22:21;;;;;;;24.38;14.43;;;;;;;;;;5114787;27;20464;-85
2022/03/27 10:24:51;;;;;;;24.00;13.82;;;;;;;;;;5125694;27;20078;-85
2022/03/27 10:27:20;;;;;;;25.80;14.27;;;;;;;;;;5120232;27;20051;-85
2022/03/27 10:29:47;;;;;;;22.20;14.07;;;;;;;;;;5124198;27;20050;-85
2022/03/27 10:32:14;;;;;;;27.30;13.55;;;;;;;;;;5124329;27;20039;-85
2022/03/27 10:34:50;;;;;;;26.05;13.52;;;;;;;;;;5123216;27;20085;-86
2022/03/27 10:37:25;;;;;;;26.17;14.95;;;;;;;;;;5121748;27;21074;-85
2022/03/27 10:40:01;;;;;;;23.50;13.35;;;;;;;;;;5122073;27;20086;-86
2022/03/27 10:42:41;;;;;;;28.55;14.50;;;;;;;;;;5120926;27;20043;-86
2022/03/27 10:45:14;;;;;;;22.95;13.85;;;;;;;;;;5121587;27;20051;-85
2022/03/27 10:47:41;;;;;;;23.42;13.55;;;;;;;;;;5119303;27;20468;-87
2022/03/27 10:50:24;;;;;;;23.20;12.35;;;;;;;;;;5121745;27;20043;-86
2022/03/27 10:53:07;;;;;;;23.38;12.73;;;;;;;;;;5118174;27;20051;-86
2022/03/27 10:55:37;;;;;;;25.30;12.90;;;;;;;;;;5109630;27;20507;-86
2022/03/27 10:58:37;;;;;;;21.48;13.68;;;;;;;;;;5111762;27;20039;-86
2022/03/27 11:01:07;;;;;;;22.48;12.77;;;;;;;;;;5115315;27;20046;-86
2022/03/27 11:03:44;;;;;;;22.83;12.32;;;;;;;;;;5114338;27;20557;-87
2022/03/27 11:06:31;;;;;;;21.80;12.18;;;;;;;;;;5109914;27;20108;-85
2022/03/27 11:08:58;;;;;;;20.77;12.88;;;;;;;;;;5109071;28;20104;-85
2022/03/27 11:11:57;;;;;;;21.05;12.18;;;;;;;;;;5111297;28;20131;-85
2022/03/27 11:15:00;;;;;;;20.15;11.43;;;;;;;;;;5111821;28;20487;-85
2022/03/27 11:17:42;;;;;;;25.60;15.35;;;;;;;;;;5109124;28;20081;-85
2022/03/27 11:20:12;;;;;;;21.88;11.75;;;;;;;;;;5112804;28;20062;-85
2022/03/27 11:22:44;;;;;;;23.40;11.93;;;;;;;;;;5109321;28;20078;-86
2022/03/27 11:25:30;;;;;;;20.38;11.50;;;;;;;;;;5114322;28;20059;-86
2022/03/27 11:28:05;;;;;;;20.88;12.45;;;;;;;;;;5113342;28;20676;-85
2022/03/27 11:30:32;;;;;;;20.95;10.93;;;;;;;;;;5114513;28;20540;-86
2022/03/27 11:33:18;;;;;;;26.30;12.98;;;;;;;;;;5116539;28;20075;-85
2022/03/27 11:36:22;;;;;;;20.98;11.70;;;;;;;;;;5116306;28;20075;-85
2022/03/27 11:39:01;;;;;;;20.30;10.80;;;;;;;;;;5115500;28;20051;-86
2022/03/27 11:41:30;;;;;;;20.27;11.98;;;;;;;;;;5116029;28;20048;-85
2022/03/27 11:44:10;;;;;;;20.42;12.02;;;;;;;;;;5118775;28;20138;-85
2022/03/27 11:46:37;;;;;;;18.15;11.82;;;;;;;;;;5120675;27;20040;-86
2022/03/27 11:49:05;;;;;;;22.33;11.52;;;;;;;;;;5126928;27;20143;-86
2022/03/27 11:51:35;;;;;;;22.25;12.77;;;;;;;;;;5121087;27;20375;-86
2022/03/27 11:54:02;;;;;;;22.48;12.85;;;;;;;;;;5120043;27;20067;-86
2022/03/27 11:56:29;;;;;;;22.13;12.55;;;;;;;;;;5114715;27;20054;-86
2022/03/27 11:59:05;;;;;;;19.58;11.27;;;;;;;;;;5120038;27;20137;-86
2022/03/27 12:01:32;;;;;;;19.38;10.85;;;;;;;;;;5116686;27;20036;-85
2022/03/27 12:03:59;;;;;;;18.48;10.85;;;;;;;;;;5119682;27;20096;-86
2022/03/27 12:06:29;;;;;;;20.38;11.38;;;;;;;;;;5115994;27;20449;-85
2022/03/27 12:08:56;;;;;;;14.95;9.07;;;;;;;;;;5121746;27;20075;-86
2022/03/27 12:11:25;;;;;;;16.45;9.77;;;;;;;;;;5125943;27;20051;-86
2022/03/27 12:13:52;;;;;;;20.10;10.73;;;;;;;;;;5117736;27;20051;-86
2022/03/27 12:16:21;;;;;;;20.60;10.73;;;;;;;;;;5123845;27;20039;-86
2022/03/27 12:18:48;;;;;;;19.15;11.38;;;;;;;;;;5118847;27;20163;-86
2022/03/27 12:21:18;;;;;;;16.67;10.88;;;;;;;;;;5120125;27;20043;-86
2022/03/27 12:23:48;;;;;;;20.77;9.93;;;;;;;;;;5122755;27;20516;-86
2022/03/27 12:32:04;;;;;;;26.33;12.75;;;;;;;;;;5117793;27;20300;-86
2022/03/27 12:34:31;;;;;;;18.90;11.52;;;;;;;;;;5116099;27;20526;-86
2022/03/27 12:37:14;;;;;;;21.27;11.68;;;;;;;;;;5118556;27;20047;-85
2022/03/27 12:40:01;;;;;;;20.30;11.90;;;;;;;;;;5113410;27;20426;-86
2022/03/27 12:42:35;;;;;;;25.23;11.77;;;;;;;;;;5114556;27;20048;-86
2022/03/27 12:45:03;;;;;;;22.92;13.55;;;;;;;;;;5115558;27;20051;-86
2022/03/27 12:47:31;;;;;;;21.67;11.77;;;;;;;;;;5116287;27;20512;-87
2022/03/27 12:49:58;;;;;;;17.75;10.20;;;;;;;;;;5116227;27;20413;-86
2022/03/27 12:52:24;;;;;;;21.15;11.98;;;;;;;;;;5115545;27;20519;-86
2022/03/27 12:55:00;;;;;;;20.02;11.32;;;;;;;;;;5116585;27;20139;-87
2022/03/27 12:57:48;;;;;;;19.80;11.05;;;;;;;;;;5118499;27;20459;-86
2022/03/27 13:00:16;;;;;;;22.58;12.55;;;;;;;;;;5114109;27;20433;-86
2022/03/27 13:02:43;;;;;;;16.83;10.57;;;;;;;;;;5117895;27;20165;-86
2022/03/27 13:05:10;;;;;;;21.83;10.73;;;;;;;;;;5112822;27;20055;-86
2022/03/27 13:07:53;;;;;;;19.75;11.20;;;;;;;;;;5115894;27;20055;-87
2022/03/27 13:10:22;;;;;;;18.05;10.35;;;;;;;;;;5118566;27;20137;-86
2022/03/27 13:13:05;;;;;;;16.27;10.63;;;;;;;;;;5115057;27;20612;-86
2022/03/27 13:15:39;;;;;;;19.73;11.68;;;;;;;;;;5116574;27;20149;-86
2022/03/27 13:18:10;;;;;;;22.73;11.55;;;;;;;;;;5114896;27;20121;-86
2022/03/27 13:20:37;;;;;;;17.67;11.02;;;;;;;;;;5117767;27;20101;-86
2022/03/27 13:23:04;;;;;;;17.58;10.90;;;;;;;;;;5114572;27;20090;-86
2022/03/27 13:25:32;;;;;;;18.33;11.15;;;;;;;;;;5113917;27;20115;-86
2022/03/27 13:27:59;;;;;;;22.42;11.13;;;;;;;;;;5116313;27;20066;-86
2022/03/27 13:30:26;;;;;;;16.45;9.57;;;;;;;;;;5114417;27;20082;-86
2022/03/27 13:32:52;;;;;;;16.65;9.75;;;;;;;;;;5111180;27;20051;-86
2022/03/27 13:35:19;;;;;;;18.38;10.60;;;;;;;;;;5109865;27;20050;-86
2022/03/27 13:37:47;;;;;;;18.80;11.70;;;;;;;;;;5112299;27;20572;-86
2022/03/27 13:40:14;;;;;;;19.27;10.48;;;;;;;;;;5114426;27;20090;-86
2022/03/27 13:43:00;;;;;;;18.75;10.55;;;;;;;;;;5117595;27;20074;-86
2022/03/27 13:45:27;;;;;;;20.02;12.95;;;;;;;;;;5113150;27;20129;-86
2022/03/27 13:47:55;;;;;;;20.38;12.73;;;;;;;;;;5112116;27;20055;-86
2022/03/27 13:50:22;;;;;;;17.45;11.18;;;;;;;;;;5113610;27;20065;-86
2022/03/27 13:52:48;;;;;;;19.67;10.70;;;;;;;;;;5112204;27;20138;-86
2022/03/27 13:55:15;;;;;;;21.98;11.10;;;;;;;;;;5113378;27;20079;-86
2022/03/27 13:57:43;;;;;;;17.35;11.32;;;;;;;;;;5117095;27;20051;-86
2022/03/27 14:00:11;;;;;;;21.27;11.38;;;;;;;;;;5115558;27;20123;-86
2022/03/27 14:02:37;;;;;;;18.85;10.77;;;;;;;;;;5113564;27;20078;-86
2022/03/27 14:05:05;;;;;;;21.95;12.98;;;;;;;;;;5114662;27;20079;-86
2022/03/27 14:07:32;;;;;;;21.90;12.52;;;;;;;;;;5115280;27;20066;-86
2022/03/27 14:09:58;;;;;;;21.10;12.55;;;;;;;;;;5112721;27;20043;-86
2022/03/27 14:12:25;;;;;;;20.02;12.27;;;;;;;;;;5114542;27;20138;-87
2022/03/27 14:14:53;;;;;;;19.17;10.70;;;;;;;;;;5115689;27;20110;-87
2022/03/27 14:17:19;;;;;;;18.05;10.77;;;;;;;;;;5117833;27;20113;-86
2022/03/27 14:19:46;;;;;;;20.67;11.82;;;;;;;;;;5113267;27;20054;-87
2022/03/27 14:22:13;;;;;;;16.48;10.70;;;;;;;;;;5115324;27;20545;-86
2022/03/27 14:24:39;;;;;;;14.07;10.00;;;;;;;;;;5116696;27;20575;-87
2022/03/27 14:27:06;;;;;;;20.63;10.57;;;;;;;;;;5116658;27;21437;-87
2022/03/27 14:29:33;;;;;;;19.65;10.98;;;;;;;;;;5123618;27;20130;-88
2022/03/27 14:32:01;;;;;;;17.77;9.90;;;;;;;;;;5116204;27;20059;-88
2022/03/27 14:34:28;;;;;;;21.35;9.68;;;;;;;;;;5118020;27;20373;-88
2022/03/27 14:36:54;;;;;;;20.25;10.35;;;;;;;;;;5115988;27;20051;-87
2022/03/27 14:39:21;;;;;;;17.35;10.00;;;;;;;;;;5112643;27;20186;-85
2022/03/27 14:41:48;;;;;;;15.90;10.75;;;;;;;;;;5116286;27;20544;-87
2022/03/27 14:44:14;;;;;;;16.08;10.65;;;;;;;;;;5114508;27;20047;-87
2022/03/27 14:46:41;;;;;;;17.80;11.38;;;;;;;;;;5117972;27;20047;-87